Time;durP1;ratioP1;P1;durP2;ratioP2;P2;SDS_P1;SDS_P2;PMS_P1;PMS_P2;Temp;Humidity;BMP_temperature;BMP_pressure;BME280_temperature;BME280_humidity;BME280_pressure;Samples;Min_cycle;Max_cycle;Signal;HPM_P1;HPM_P2
2022/01/23 00:00:19;;;;;;;9.90;5.13;;;5.70;99.90;;;;;;4986184;28;20240;-65
2022/01/23 00:02:51;;;;;;;8.90;5.00;;;5.70;99.90;;;;;;4979425;28;20484;-65
2022/01/23 00:05:21;;;;;;;8.30;5.10;;;5.80;99.90;;;;;;4991025;28;20261;-65
2022/01/23 00:07:52;;;;;;;9.93;5.97;;;6.00;99.90;;;;;;4990355;28;20234;-65
2022/01/23 00:10:20;;;;;;;8.43;5.30;;;5.90;99.90;;;;;;4990902;28;20268;-65
2022/01/23 00:12:52;;;;;;;14.90;6.93;;;5.90;99.90;;;;;;4990587;28;20234;-65
2022/01/23 00:18:08;;;;;;;9.77;6.20;;;5.80;99.90;;;;;;4990950;28;20304;-65
2022/01/23 00:20:37;;;;;;;15.10;7.27;;;5.90;99.90;;;;;;4990815;28;20346;-65
2022/01/23 00:23:13;;;;;;;13.63;7.43;;;5.80;99.90;;;;;;4991003;28;20748;-66
2022/01/23 00:31:28;;;;;;;14.40;7.87;;;5.80;99.90;;;;;;4938094;28;20693;-65
2022/01/23 00:33:59;;;;;;;12.83;7.97;;;5.90;99.90;;;;;;4932563;28;20330;-65
2022/01/23 00:36:28;;;;;;;13.67;7.77;;;5.90;99.90;;;;;;4945019;28;20745;-65
2022/01/23 00:38:57;;;;;;;13.43;8.73;;;6.00;99.90;;;;;;5005865;28;20237;-66
2022/01/23 00:41:26;;;;;;;14.07;7.10;;;5.90;99.90;;;;;;4990744;28;20249;-66
2022/01/23 00:43:54;;;;;;;17.23;8.23;;;5.90;99.90;;;;;;4988606;28;20238;-66
2022/01/23 00:46:30;;;;;;;10.93;6.80;;;5.90;99.90;;;;;;4971998;28;20249;-65
2022/01/23 00:49:24;;;;;;;11.33;6.93;;;5.80;99.90;;;;;;4987382;28;20269;-65
2022/01/23 00:51:55;;;;;;;12.83;7.03;;;5.90;99.90;;;;;;5009183;28;20580;-66
2022/01/23 00:54:25;;;;;;;10.13;6.13;;;5.90;99.90;;;;;;5010734;28;20242;-65
2022/01/23 00:56:54;;;;;;;14.40;6.80;;;5.90;99.90;;;;;;4994137;28;20321;-66
2022/01/23 00:59:22;;;;;;;12.47;6.10;;;5.90;99.90;;;;;;4994653;28;20295;-65
2022/01/23 01:01:50;;;;;;;12.13;6.43;;;5.90;99.90;;;;;;5015280;28;20241;-65
2022/01/23 01:04:20;;;;;;;10.33;6.50;;;5.90;99.90;;;;;;4993772;28;20245;-65
2022/01/23 01:06:48;;;;;;;13.40;7.03;;;5.90;99.90;;;;;;4992190;28;20238;-66
2022/01/23 01:09:17;;;;;;;16.07;6.90;;;5.90;99.90;;;;;;4993885;28;20368;-65
2022/01/23 01:11:58;;;;;;;11.57;6.50;;;5.80;99.90;;;;;;4992422;28;20324;-65
2022/01/23 01:14:41;;;;;;;10.63;6.87;;;5.80;99.90;;;;;;5010473;28;20323;-65
2022/01/23 01:17:16;;;;;;;14.00;7.60;;;5.80;99.90;;;;;;5008997;28;20238;-66
2022/01/23 01:31:05;;;;;;;13.17;8.27;;;5.80;99.90;;;;;;4972584;28;20248;-65
2022/01/23 01:33:43;;;;;;;17.03;8.73;;;5.80;99.90;;;;;;4992980;28;21120;-65
2022/01/23 01:36:22;;;;;;;16.17;8.50;;;5.80;99.90;;;;;;5008405;28;20243;-65
2022/01/23 01:38:52;;;;;;;17.13;8.57;;;5.80;99.90;;;;;;5008084;28;20237;-65
2022/01/23 01:41:23;;;;;;;12.73;7.83;;;5.80;99.90;;;;;;5008295;28;20324;-65
2022/01/23 01:43:53;;;;;;;15.23;8.13;;;5.80;99.90;;;;;;5008068;28;20320;-65
2022/01/23 01:46:40;;;;;;;17.07;8.10;;;5.80;99.90;;;;;;5008189;28;20248;-66
2022/01/23 01:49:09;;;;;;;14.27;7.60;;;5.80;99.90;;;;;;5007910;28;20304;-65
2022/01/23 01:51:39;;;;;;;13.53;7.60;;;5.80;99.90;;;;;;5008043;28;20745;-65
2022/01/23 01:54:15;;;;;;;12.77;7.53;;;5.80;99.90;;;;;;5008102;28;20303;-66
2022/01/23 01:56:50;;;;;;;15.37;7.77;;;5.80;99.90;;;;;;4989686;28;20242;-66
2022/01/23 02:08:28;;;;;;;12.43;7.63;;;5.80;99.90;;;;;;4841483;29;20630;-65
2022/01/23 02:11:03;;;;;;;11.27;6.87;;;5.80;99.90;;;;;;4951535;28;20292;-65
2022/01/23 02:13:35;;;;;;;11.83;7.90;;;5.80;99.90;;;;;;4993062;28;20491;-65
2022/01/23 02:25:04;;;;;;;11.97;7.87;;;5.90;99.90;;;;;;4990952;28;20242;-66
2022/01/23 02:52:52;;;;;;;11.17;7.87;;;5.90;99.90;;;;;;4974487;28;20248;-66
2022/01/23 02:55:25;;;;;;;9.40;7.33;;;5.80;99.90;;;;;;5006755;28;20682;-65
2022/01/23 02:58:01;;;;;;;11.43;8.20;;;5.90;99.90;;;;;;5006446;28;20469;-66
2022/01/23 03:00:36;;;;;;;10.33;7.33;;;5.90;99.90;;;;;;4990041;28;20268;-65
2022/01/23 03:03:40;;;;;;;10.77;7.30;;;5.90;99.90;;;;;;4988670;28;20241;-66
2022/01/23 03:06:54;;;;;;;11.40;7.73;;;5.90;99.90;;;;;;4991059;28;20245;-66
2022/01/23 03:12:41;;;;;;;11.07;7.87;;;5.90;99.90;;;;;;4971008;28;20238;-65
2022/01/23 03:15:07;;;;;;;10.43;8.20;;;5.90;99.90;;;;;;4989159;28;20238;-66
2022/01/23 03:29:01;;;;;;;12.60;9.13;;;5.90;99.90;;;;;;4983800;28;20257;-65
2022/01/23 03:31:33;;;;;;;11.80;9.20;;;5.90;99.90;;;;;;4996339;28;20704;-65
2022/01/23 03:34:05;;;;;;;11.57;9.33;;;5.90;99.90;;;;;;4991862;28;20245;-66
2022/01/23 03:36:33;;;;;;;13.87;9.40;;;5.90;99.90;;;;;;4991292;28;20855;-65
2022/01/23 03:39:01;;;;;;;11.87;9.23;;;6.00;99.90;;;;;;4991410;28;20230;-65
2022/01/23 03:41:29;;;;;;;13.03;9.20;;;6.00;99.90;;;;;;4986541;28;20242;-65
2022/01/23 03:44:00;;;;;;;11.83;9.30;;;5.90;99.90;;;;;;4970262;28;20232;-66
2022/01/23 03:46:47;;;;;;;9.70;8.30;;;5.90;99.90;;;;;;4970172;28;20631;-65
2022/01/23 03:49:31;;;;;;;11.03;8.60;;;5.90;99.90;;;;;;5004394;28;20245;-65
2022/01/23 03:52:24;;;;;;;10.90;8.50;;;5.90;99.90;;;;;;4992195;28;20265;-66
2022/01/23 03:54:52;;;;;;;13.73;8.53;;;6.00;99.90;;;;;;4986761;28;20707;-66
2022/01/23 03:57:21;;;;;;;10.80;7.83;;;6.00;99.90;;;;;;4986504;28;20238;-65
2022/01/23 03:59:50;;;;;;;11.10;7.93;;;6.00;99.90;;;;;;4995901;28;20744;-65
2022/01/23 04:02:20;;;;;;;11.50;7.93;;;5.90;99.90;;;;;;5005768;28;20706;-66
2022/01/23 04:04:48;;;;;;;10.73;8.10;;;5.90;99.90;;;;;;5005914;28;20326;-66
2022/01/23 04:07:25;;;;;;;11.30;7.70;;;6.00;99.90;;;;;;4992389;28;20319;-65
2022/01/23 04:09:54;;;;;;;9.60;7.90;;;6.00;99.90;;;;;;5006172;28;20590;-65
2022/01/23 04:12:38;;;;;;;13.50;8.40;;;6.00;99.90;;;;;;5005797;28;20491;-65
2022/01/23 04:15:16;;;;;;;10.37;7.63;;;6.00;99.90;;;;;;5005842;28;20369;-65
2022/01/23 04:20:38;;;;;;;9.10;6.80;;;6.00;99.90;;;;;;5005734;28;20234;-65
2022/01/23 04:32:03;;;;;;;10.70;6.57;;;6.10;99.90;;;;;;5014648;28;20242;-65
2022/01/23 04:34:38;;;;;;;11.43;7.23;;;6.10;99.90;;;;;;5011460;28;20336;-65
2022/01/23 04:45:35;;;;;;;10.97;7.53;;;6.10;99.90;;;;;;4992895;28;20891;-65
2022/01/23 05:02:06;;;;;;;12.03;7.87;;;6.40;99.90;;;;;;5009194;28;25451;-65
2022/01/23 05:04:54;;;;;;;13.20;7.77;;;6.30;99.90;;;;;;4974438;28;20333;-65
2022/01/23 05:07:40;;;;;;;11.30;7.30;;;6.40;99.90;;;;;;4982218;28;20237;-65
2022/01/23 05:10:24;;;;;;;12.93;8.37;;;6.30;99.90;;;;;;5009018;28;20304;-65
2022/01/23 05:12:57;;;;;;;13.53;8.53;;;6.20;99.90;;;;;;5010813;28;20226;-66
2022/01/23 05:15:25;;;;;;;14.80;8.83;;;6.20;99.90;;;;;;4993835;28;20642;-65
2022/01/23 05:17:53;;;;;;;15.87;9.23;;;6.30;99.90;;;;;;5008625;28;20725;-65
2022/01/23 05:20:26;;;;;;;15.17;8.73;;;6.20;99.90;;;;;;4993815;28;20304;-65
2022/01/23 05:23:00;;;;;;;16.13;8.47;;;6.30;99.90;;;;;;4993810;28;20245;-65
2022/01/23 05:25:31;;;;;;;12.83;8.43;;;6.30;99.90;;;;;;4993601;28;20249;-65
2022/01/23 05:28:00;;;;;;;11.33;8.57;;;6.30;99.90;;;;;;5005321;28;20233;-65
2022/01/23 05:30:28;;;;;;;16.13;8.20;;;6.20;99.90;;;;;;4985568;28;20240;-65
2022/01/23 05:32:58;;;;;;;13.00;8.93;;;6.20;99.90;;;;;;4979889;28;20249;-65
2022/01/23 05:35:29;;;;;;;14.30;8.93;;;6.30;99.90;;;;;;5008270;28;20698;-65
2022/01/23 05:37:58;;;;;;;15.57;9.43;;;6.40;99.90;;;;;;5008419;28;20256;-66
2022/01/23 05:40:29;;;;;;;16.97;9.30;;;6.40;99.90;;;;;;5008137;28;20261;-65
2022/01/23 05:42:59;;;;;;;12.53;7.83;;;6.30;99.90;;;;;;5007511;28;20287;-65
2022/01/23 05:45:27;;;;;;;14.73;9.87;;;6.40;99.90;;;;;;5007782;28;20234;-65
2022/01/23 05:48:08;;;;;;;16.17;9.23;;;6.40;99.90;;;;;;4992924;28;20320;-65
2022/01/23 05:50:53;;;;;;;13.57;9.27;;;6.30;99.90;;;;;;4993132;28;20238;-66
2022/01/23 05:53:41;;;;;;;18.07;10.67;;;6.30;99.90;;;;;;5000598;28;20630;-65
2022/01/23 05:56:20;;;;;;;16.63;9.77;;;6.40;99.90;;;;;;4993289;28;20752;-65
2022/01/23 05:59:10;;;;;;;18.60;9.93;;;6.30;99.90;;;;;;4992935;28;20253;-66
2022/01/23 06:01:46;;;;;;;17.63;11.30;;;6.30;99.90;;;;;;5007794;28;20739;-65
2022/01/23 06:04:19;;;;;;;15.77;9.73;;;6.30;99.90;;;;;;5007798;28;20237;-66
2022/01/23 06:07:00;;;;;;;21.63;9.87;;;6.30;99.90;;;;;;5007505;28;20237;-66
2022/01/23 06:09:28;;;;;;;19.17;10.97;;;6.40;99.90;;;;;;5007539;28;20249;-65
2022/01/23 06:11:58;;;;;;;17.87;10.10;;;6.40;99.90;;;;;;4988485;28;20238;-65
2022/01/23 06:14:26;;;;;;;20.07;10.77;;;6.40;99.90;;;;;;5013957;28;20240;-66
2022/01/23 06:16:55;;;;;;;18.13;10.43;;;6.40;99.90;;;;;;4988976;28;20249;-66
2022/01/23 06:19:42;;;;;;;23.13;10.20;;;6.40;99.90;;;;;;4992122;28;20288;-65
2022/01/23 06:22:29;;;;;;;16.83;9.13;;;6.40;99.90;;;;;;4986767;28;20237;-65
2022/01/23 06:25:29;;;;;;;24.40;10.40;;;6.40;99.90;;;;;;4992469;28;20244;-65
2022/01/23 06:28:10;;;;;;;19.37;11.03;;;6.40;99.90;;;;;;4991075;28;20257;-65
2022/01/23 06:30:39;;;;;;;16.73;9.67;;;6.40;99.90;;;;;;5007208;28;20238;-65
2022/01/23 06:33:08;;;;;;;19.47;10.60;;;6.40;99.90;;;;;;4992234;28;20602;-65
2022/01/23 06:35:37;;;;;;;19.93;10.70;;;6.40;99.90;;;;;;4982955;28;20229;-65
2022/01/23 06:38:07;;;;;;;15.57;10.20;;;6.40;99.90;;;;;;4990543;28;20234;-65
2022/01/23 06:40:35;;;;;;;14.47;9.77;;;6.40;99.90;;;;;;4990673;28;20241;-65
2022/01/23 06:43:15;;;;;;;20.50;10.17;;;6.50;99.90;;;;;;5007127;28;20328;-65
2022/01/23 06:45:58;;;;;;;16.20;9.70;;;6.50;99.90;;;;;;4990573;28;20645;-65
2022/01/23 06:48:26;;;;;;;19.23;9.63;;;6.50;99.90;;;;;;5006838;28;20237;-65
2022/01/23 06:50:55;;;;;;;21.73;10.60;;;6.40;99.90;;;;;;5003771;28;20594;-66
2022/01/23 06:53:24;;;;;;;18.97;9.87;;;6.40;99.90;;;;;;4988423;28;20241;-66
2022/01/23 06:55:52;;;;;;;17.60;9.80;;;6.40;99.90;;;;;;4982410;28;20234;-67
2022/01/23 06:58:20;;;;;;;18.93;9.70;;;6.40;99.90;;;;;;4984502;28;20234;-66
2022/01/23 07:00:49;;;;;;;20.50;9.63;;;6.40;99.90;;;;;;4980831;28;20238;-66
2022/01/23 07:03:35;;;;;;;16.27;9.07;;;6.50;99.90;;;;;;4984990;28;20237;-65
2022/01/23 07:06:26;;;;;;;18.10;9.80;;;6.50;99.90;;;;;;4980431;28;20242;-65
2022/01/23 07:09:33;;;;;;;16.87;9.63;;;6.40;99.90;;;;;;4992324;28;20311;-66
2022/01/23 07:12:20;;;;;;;15.60;9.27;;;6.40;99.90;;;;;;4984201;28;20610;-65
2022/01/23 07:15:11;;;;;;;19.37;9.07;;;6.40;99.90;;;;;;4982951;28;20242;-65
2022/01/23 07:18:03;;;;;;;22.20;9.47;;;6.50;99.90;;;;;;4983246;28;20715;-66
2022/01/23 07:20:34;;;;;;;16.20;8.93;;;6.50;99.90;;;;;;4975728;28;20297;-66
2022/01/23 07:23:10;;;;;;;21.50;9.60;;;6.50;99.90;;;;;;4989988;28;20241;-66
2022/01/23 07:25:42;;;;;;;17.27;10.10;;;6.50;99.90;;;;;;5006599;28;20245;-66
2022/01/23 07:28:13;;;;;;;18.83;9.50;;;6.50;99.90;;;;;;4990148;28;20706;-65
2022/01/23 07:30:49;;;;;;;15.60;8.83;;;6.50;99.90;;;;;;5003602;28;20230;-65
2022/01/23 07:33:17;;;;;;;15.23;9.33;;;6.50;99.90;;;;;;4997562;28;20234;-65
2022/01/23 07:35:46;;;;;;;16.73;9.33;;;6.50;99.90;;;;;;4980206;28;20649;-66
2022/01/23 07:38:16;;;;;;;16.57;9.13;;;6.50;99.90;;;;;;4998274;28;20242;-66
2022/01/23 07:40:54;;;;;;;16.70;9.27;;;6.50;99.90;;;;;;5003648;28;20245;-65
2022/01/23 07:43:33;;;;;;;15.30;9.13;;;6.50;99.90;;;;;;5002057;28;20276;-66
2022/01/23 07:46:24;;;;;;;14.57;8.67;;;6.60;99.90;;;;;;4987239;28;20230;-65
2022/01/23 07:49:13;;;;;;;16.97;9.03;;;6.70;99.90;;;;;;5015360;28;20783;-66
2022/01/23 07:51:47;;;;;;;17.37;9.30;;;6.70;99.90;;;;;;5006381;28;20225;-65
2022/01/23 07:54:25;;;;;;;17.03;9.50;;;6.80;99.90;;;;;;4978226;28;20329;-66
2022/01/23 07:57:08;;;;;;;15.63;8.13;;;6.80;99.90;;;;;;4973258;28;20329;-65
2022/01/23 07:59:49;;;;;;;17.93;8.97;;;6.80;99.90;;;;;;4980181;28;20235;-66
2022/01/23 08:02:47;;;;;;;13.67;8.17;;;6.90;99.90;;;;;;4977198;28;20269;-66
2022/01/23 08:05:24;;;;;;;15.43;9.00;;;6.90;99.90;;;;;;4977243;28;20241;-65
2022/01/23 08:08:11;;;;;;;17.23;10.17;;;7.00;99.90;;;;;;4975315;28;20249;-65
2022/01/23 08:10:52;;;;;;;15.67;10.50;;;6.80;99.90;;;;;;4975568;28;20266;-65
2022/01/23 08:13:21;;;;;;;20.43;10.93;;;6.70;99.90;;;;;;4969074;28;20273;-65
2022/01/23 08:15:49;;;;;;;23.30;11.40;;;6.80;99.90;;;;;;4966803;28;20236;-65
2022/01/23 08:18:17;;;;;;;19.63;11.17;;;6.70;99.90;;;;;;4970593;28;20699;-65
2022/01/23 08:20:45;;;;;;;20.73;12.00;;;6.70;99.90;;;;;;4991056;28;20233;-66
2022/01/23 08:23:18;;;;;;;22.63;11.53;;;6.70;99.90;;;;;;4991675;28;20292;-65
2022/01/23 08:25:46;;;;;;;23.03;11.33;;;6.80;99.90;;;;;;5003504;28;20748;-66
2022/01/23 08:28:15;;;;;;;19.60;11.90;;;6.80;99.90;;;;;;5000199;28;20315;-65
2022/01/23 08:30:45;;;;;;;19.93;11.47;;;6.80;99.90;;;;;;4994388;28;20232;-66
2022/01/23 08:33:13;;;;;;;16.97;10.80;;;6.80;99.90;;;;;;4991015;28;20642;-66
2022/01/23 08:35:43;;;;;;;21.47;11.00;;;6.80;99.90;;;;;;4988439;28;20611;-66
2022/01/23 08:38:13;;;;;;;17.30;10.90;;;6.80;99.90;;;;;;4989434;28;20233;-65
2022/01/23 08:41:49;;;;;;;19.67;11.07;;;6.80;99.90;;;;;;4989103;28;20331;-65
2022/01/23 08:43:37;;;;;;;17.90;10.70;;;6.80;99.90;;;;;;4995008;28;20255;-65
2022/01/23 08:46:07;;;;;;;17.40;11.03;;;6.80;99.90;;;;;;4986124;28;20246;-65
2022/01/23 08:48:36;;;;;;;16.33;10.77;;;6.80;99.90;;;;;;4990755;28;20256;-65
2022/01/23 08:51:04;;;;;;;18.60;11.03;;;6.80;99.90;;;;;;4988811;28;20718;-65
2022/01/23 08:53:32;;;;;;;19.90;12.07;;;6.80;99.90;;;;;;4979610;28;20234;-65
2022/01/23 08:56:00;;;;;;;17.40;10.53;;;6.90;99.90;;;;;;4975436;28;20253;-65
2022/01/23 08:58:28;;;;;;;17.63;10.03;;;6.90;99.90;;;;;;4971597;28;20242;-65
2022/01/23 09:00:59;;;;;;;21.33;11.53;;;6.90;99.90;;;;;;4975267;28;20357;-65
2022/01/23 09:03:29;;;;;;;22.53;10.70;;;6.90;99.90;;;;;;4978256;28;20325;-65
2022/01/23 09:05:57;;;;;;;21.43;11.27;;;6.90;99.90;;;;;;4979048;28;20242;-65
2022/01/23 09:08:25;;;;;;;17.77;10.33;;;6.90;99.90;;;;;;4968726;28;20242;-65
2022/01/23 09:10:56;;;;;;;18.80;11.03;;;6.90;99.90;;;;;;4976215;28;20272;-65
2022/01/23 09:13:40;;;;;;;18.67;10.63;;;7.00;99.90;;;;;;4973072;28;20262;-65
2022/01/23 09:16:08;;;;;;;17.83;9.57;;;7.00;99.90;;;;;;4986672;28;20336;-65
2022/01/23 09:18:38;;;;;;;16.30;9.97;;;7.00;99.90;;;;;;4992688;28;20237;-65
2022/01/23 09:21:06;;;;;;;16.90;10.03;;;7.00;99.90;;;;;;4989094;28;20329;-65
2022/01/23 09:23:35;;;;;;;16.57;9.80;;;7.10;99.90;;;;;;4991815;28;20241;-65
2022/01/23 09:26:08;;;;;;;13.00;8.93;;;7.10;99.90;;;;;;4996778;28;20242;-65
2022/01/23 09:28:39;;;;;;;16.93;8.53;;;7.10;99.90;;;;;;4989582;28;20249;-65
2022/01/23 09:31:07;;;;;;;18.63;9.20;;;7.10;99.90;;;;;;4998939;28;20319;-65
2022/01/23 09:33:39;;;;;;;15.57;8.40;;;7.10;99.90;;;;;;4988066;28;20264;-65
2022/01/23 09:36:08;;;;;;;13.57;8.13;;;7.10;99.90;;;;;;4989402;28;20244;-65
2022/01/23 09:38:37;;;;;;;15.73;8.40;;;7.10;99.90;;;;;;4990216;28;20268;-65
2022/01/23 09:41:06;;;;;;;14.87;8.70;;;7.10;99.90;;;;;;4994346;28;20694;-64
2022/01/23 09:43:39;;;;;;;14.67;8.23;;;7.20;99.90;;;;;;4993643;28;20316;-65
2022/01/23 09:46:09;;;;;;;13.30;8.13;;;7.20;99.90;;;;;;4991107;28;20606;-65
2022/01/23 09:48:40;;;;;;;13.07;8.07;;;7.20;99.90;;;;;;4997464;28;20702;-65
2022/01/23 09:51:08;;;;;;;14.57;7.77;;;7.20;99.90;;;;;;4994716;28;20324;-65
2022/01/23 09:53:40;;;;;;;11.60;6.47;;;7.20;99.90;;;;;;4995029;28;20237;-65
2022/01/23 09:56:09;;;;;;;14.07;7.80;;;7.10;99.90;;;;;;4994506;28;20288;-65
2022/01/23 09:58:39;;;;;;;14.37;6.27;;;7.20;99.90;;;;;;4992159;28;20608;-65
2022/01/23 10:01:07;;;;;;;16.40;7.17;;;7.10;99.90;;;;;;4994399;28;20272;-65
2022/01/23 10:03:35;;;;;;;14.20;6.53;;;7.10;99.90;;;;;;4989210;28;20229;-65
2022/01/23 10:06:08;;;;;;;14.67;8.07;;;7.10;99.90;;;;;;4994238;28;20241;-66
2022/01/23 10:08:37;;;;;;;13.83;6.43;;;7.10;99.90;;;;;;4995030;28;20269;-65
2022/01/23 10:11:10;;;;;;;13.57;6.47;;;7.20;99.90;;;;;;4997379;28;20248;-65
2022/01/23 10:13:38;;;;;;;10.83;5.57;;;7.10;99.90;;;;;;4998249;28;20234;-65
2022/01/23 10:16:06;;;;;;;13.57;5.87;;;7.10;99.90;;;;;;4991300;28;20241;-65
2022/01/23 10:18:34;;;;;;;10.43;6.47;;;7.20;99.90;;;;;;4986017;28;20252;-65
2022/01/23 10:21:03;;;;;;;11.30;5.07;;;7.20;99.90;;;;;;4985485;28;20278;-65
2022/01/23 10:23:33;;;;;;;12.53;6.60;;;7.30;99.90;;;;;;4986638;28;20629;-65
2022/01/23 10:26:04;;;;;;;12.07;5.80;;;7.40;99.90;;;;;;4986730;28;20241;-65
2022/01/23 10:28:34;;;;;;;15.73;6.30;;;7.40;99.90;;;;;;4986696;28;20610;-65
2022/01/23 10:31:05;;;;;;;11.13;6.23;;;7.40;99.90;;;;;;4986049;28;20246;-65
2022/01/23 10:33:35;;;;;;;12.07;6.07;;;7.40;99.90;;;;;;4986591;28;20736;-65
2022/01/23 10:36:05;;;;;;;12.07;5.97;;;7.50;99.90;;;;;;4985895;28;20300;-64
2022/01/23 10:38:37;;;;;;;12.00;5.60;;;7.60;99.90;;;;;;4986077;28;20242;-65
2022/01/23 10:41:31;;;;;;;8.33;5.13;;;7.60;99.90;;;;;;4985272;28;20717;-65
2022/01/23 10:47:30;;;;;;;10.57;5.10;;;7.70;99.90;;;;;;4986218;28;20288;-65
2022/01/23 10:50:00;;;;;;;11.77;4.87;;;7.70;99.90;;;;;;4986512;28;20230;-65
2022/01/23 10:52:32;;;;;;;9.40;4.83;;;7.70;99.90;;;;;;4985076;28;20231;-64
2022/01/23 10:55:02;;;;;;;8.13;4.63;;;7.70;99.90;;;;;;4986928;28;20325;-65
2022/01/23 10:57:35;;;;;;;10.93;4.83;;;7.80;99.90;;;;;;5002676;28;20233;-65
2022/01/23 11:00:06;;;;;;;10.47;3.53;;;7.80;99.90;;;;;;5008477;28;20316;-66
2022/01/23 11:02:39;;;;;;;8.70;3.93;;;7.80;99.90;;;;;;4990285;28;20720;-65
2022/01/23 11:05:11;;;;;;;9.70;3.80;;;7.70;99.90;;;;;;4953942;28;20755;-65
2022/01/23 11:07:41;;;;;;;6.93;3.67;;;7.70;99.90;;;;;;4999329;28;20321;-65
2022/01/23 11:10:14;;;;;;;10.13;3.40;;;7.70;99.90;;;;;;4983684;28;20376;-65
2022/01/23 11:17:21;;;;;;;10.80;3.43;;;7.70;99.90;;;;;;4989231;28;20718;-65
2022/01/23 11:18:34;;;;;;;8.73;3.60;;;7.80;99.90;;;;;;4988072;28;20230;-65
2022/01/23 11:21:15;;;;;;;6.83;3.27;;;7.90;99.90;;;;;;4988086;28;20804;-66
2022/01/23 11:23:43;;;;;;;12.80;3.60;;;8.00;99.90;;;;;;4987692;28;20230;-64
2022/01/23 11:26:14;;;;;;;7.67;3.40;;;8.00;99.90;;;;;;4989831;28;20284;-65
2022/01/23 11:28:46;;;;;;;8.47;3.00;;;8.00;99.90;;;;;;4990146;28;20264;-65
2022/01/23 11:31:18;;;;;;;6.80;2.80;;;8.00;99.90;;;;;;4986868;28;20249;-65
2022/01/23 11:33:48;;;;;;;8.70;3.00;;;8.10;99.90;;;;;;4989441;28;20299;-66
2022/01/23 11:36:18;;;;;;;6.53;3.00;;;8.10;99.90;;;;;;4987258;28;20321;-65
2022/01/23 11:38:48;;;;;;;7.23;2.67;;;8.10;99.90;;;;;;4990171;28;20249;-65
2022/01/23 11:55:28;;;;;;;10.10;3.40;;;8.10;99.90;;;;;;4990462;28;20765;-65
2022/01/23 11:57:58;;;;;;;7.63;3.37;;;8.20;99.90;;;;;;4975661;28;20245;-66
2022/01/23 12:00:30;;;;;;;6.43;2.50;;;8.30;99.90;;;;;;4987375;28;20292;-65
2022/01/23 12:03:13;;;;;;;7.70;2.63;;;8.40;99.90;;;;;;4982587;28;20661;-66
2022/01/23 12:05:44;;;;;;;5.87;2.30;;;8.40;99.90;;;;;;4982359;28;20229;-65
2022/01/23 12:08:23;;;;;;;5.23;2.33;;;8.40;99.90;;;;;;4990761;28;20776;-65
2022/01/23 12:17:17;;;;;;;5.47;2.00;;;8.40;99.90;;;;;;4976105;28;20265;-66
2022/01/23 12:19:52;;;;;;;6.20;1.90;;;8.40;99.90;;;;;;4987604;28;20315;-65
2022/01/23 12:22:35;;;;;;;4.50;2.40;;;8.40;99.90;;;;;;4992631;28;20241;-65
2022/01/23 12:25:25;;;;;;;5.13;2.10;;;8.40;99.90;;;;;;4986345;28;20291;-65
2022/01/23 12:28:10;;;;;;;4.33;2.00;;;8.50;99.90;;;;;;4988437;28;20261;-65
2022/01/23 12:30:41;;;;;;;7.27;1.93;;;8.60;99.90;;;;;;4971819;28;20292;-65
2022/01/23 12:33:16;;;;;;;4.73;2.10;;;8.60;99.90;;;;;;4985485;28;20742;-66
2022/01/23 12:35:46;;;;;;;3.40;1.83;;;8.80;99.90;;;;;;4988538;28;20272;-65
2022/01/23 12:38:16;;;;;;;6.80;1.97;;;8.90;99.90;;;;;;4996696;28;20266;-66
2022/01/23 12:40:46;;;;;;;6.60;1.97;;;8.90;99.90;;;;;;4990275;28;20230;-65
2022/01/23 12:43:17;;;;;;;5.03;1.80;;;8.90;99.90;;;;;;4992494;28;20234;-65
2022/01/23 12:45:56;;;;;;;7.40;2.17;;;8.90;99.90;;;;;;4994344;28;20244;-65
2022/01/23 12:48:48;;;;;;;5.27;2.10;;;9.00;99.90;;;;;;5000825;28;20246;-65
2022/01/23 12:51:44;;;;;;;3.80;1.53;;;8.90;99.90;;;;;;4990025;28;20244;-65
2022/01/23 12:54:28;;;;;;;1.57;1.30;;;8.70;99.90;;;;;;4982394;28;20284;-65
2022/01/23 12:57:05;;;;;;;3.63;1.70;;;8.70;99.90;;;;;;4994370;28;20253;-65
2022/01/23 12:59:34;;;;;;;4.33;1.60;;;8.70;99.90;;;;;;4994824;28;20245;-65
2022/01/23 13:02:10;;;;;;;3.43;1.33;;;8.60;99.90;;;;;;4994794;28;20233;-65
2022/01/23 13:04:42;;;;;;;4.63;1.43;;;8.60;99.90;;;;;;4982416;28;20241;-65
2022/01/23 13:07:19;;;;;;;4.33;1.10;;;8.60;99.90;;;;;;4993834;28;20639;-65
2022/01/23 13:09:55;;;;;;;3.50;1.13;;;8.60;99.90;;;;;;4999750;28;20288;-65
2022/01/23 13:12:36;;;;;;;3.00;1.17;;;8.50;99.90;;;;;;5003881;28;20242;-65
2022/01/23 13:15:25;;;;;;;4.03;1.30;;;8.50;99.90;;;;;;4990760;28;20288;-65
2022/01/23 13:18:08;;;;;;;6.27;1.50;;;8.40;99.90;;;;;;4992587;28;20702;-65
2022/01/23 13:32:02;;;;;;;5.80;1.70;;;8.40;99.90;;;;;;4983653;28;20244;-64
2022/01/23 13:34:35;;;;;;;4.13;1.40;;;8.40;99.90;;;;;;4988086;28;20733;-65
2022/01/23 13:37:07;;;;;;;6.73;1.77;;;8.40;99.90;;;;;;4991428;28;20654;-65
2022/01/23 13:39:41;;;;;;;9.80;1.80;;;8.40;99.90;;;;;;4988191;28;20244;-64
2022/01/23 13:42:31;;;;;;;4.03;1.73;;;8.40;99.90;;;;;;4991722;28;20657;-65
2022/01/23 13:49:04;;;;;;;4.93;1.50;;;8.30;99.90;;;;;;4942097;28;20251;-64
2022/01/23 13:51:42;;;;;;;5.70;1.60;;;8.30;99.90;;;;;;4990347;28;20287;-64
2022/01/23 13:57:37;;;;;;;6.93;1.70;;;8.30;99.90;;;;;;4990750;28;20277;-65
2022/01/23 14:00:00;;;;;;;5.03;1.70;;;8.30;99.90;;;;;;4986093;28;20747;-65
2022/01/23 14:02:34;;;;;;;3.33;1.60;;;8.30;99.90;;;;;;4989417;28;20244;-65
2022/01/23 14:05:09;;;;;;;3.67;1.30;;;8.20;99.90;;;;;;4998157;28;20253;-65
2022/01/23 14:07:39;;;;;;;4.20;1.50;;;8.20;99.90;;;;;;4989291;28;20240;-65
2022/01/23 14:10:15;;;;;;;4.27;1.13;;;8.30;99.90;;;;;;4993086;28;20333;-65
2022/01/23 14:12:43;;;;;;;6.07;1.50;;;8.30;99.90;;;;;;4992401;28;20241;-65
2022/01/23 14:15:20;;;;;;;4.73;1.30;;;8.30;99.90;;;;;;4994475;28;20253;-65
2022/01/23 14:18:05;;;;;;;3.00;0.90;;;8.20;99.90;;;;;;4999253;28;20272;-65
2022/01/23 14:20:37;;;;;;;2.33;1.00;;;8.20;99.90;;;;;;4985702;28;20253;-65
2022/01/23 14:23:15;;;;;;;2.30;1.00;;;8.10;99.90;;;;;;4974395;28;21206;-65
2022/01/23 14:25:47;;;;;;;1.83;0.80;;;8.10;99.90;;;;;;4975634;28;20276;-65
2022/01/23 14:28:20;;;;;;;3.33;1.00;;;8.00;99.90;;;;;;4969967;28;20246;-65
2022/01/23 14:30:50;;;;;;;2.77;0.87;;;8.00;99.90;;;;;;4967722;28;20269;-65
2022/01/23 14:33:22;;;;;;;1.20;0.80;;;8.00;99.90;;;;;;4969131;28;20246;-65
2022/01/23 14:35:51;;;;;;;2.27;0.70;;;8.00;99.90;;;;;;4967627;28;20230;-66
2022/01/23 14:38:24;;;;;;;2.40;0.80;;;8.00;99.90;;;;;;4967749;28;20246;-66
2022/01/23 14:40:58;;;;;;;3.77;1.00;;;8.00;99.90;;;;;;4966632;28;20244;-65
2022/01/23 14:43:36;;;;;;;3.63;0.93;;;8.00;99.90;;;;;;4979137;28;20268;-66
2022/01/23 14:46:06;;;;;;;3.13;1.00;;;8.00;99.90;;;;;;4986978;28;20702;-65
2022/01/23 14:48:39;;;;;;;3.57;0.93;;;8.00;99.90;;;;;;4986663;28;20238;-65
2022/01/23 14:51:08;;;;;;;1.70;0.80;;;8.00;99.90;;;;;;4986339;28;20297;-66
2022/01/23 14:53:40;;;;;;;3.47;0.73;;;8.00;99.90;;;;;;4987674;28;20666;-65
2022/01/23 14:56:11;;;;;;;3.47;0.80;;;7.90;99.90;;;;;;4990752;28;20638;-66
2022/01/23 14:58:39;;;;;;;2.73;1.00;;;7.90;99.90;;;;;;4987595;28;20234;-65
2022/01/23 15:01:11;;;;;;;3.53;1.00;;;8.40;99.90;;;;;;4990177;28;20630;-69
2022/01/23 15:03:44;;;;;;;2.70;0.80;;;9.00;99.90;;;;;;4984270;28;20248;-66
2022/01/23 15:06:29;;;;;;;2.57;0.90;;;8.40;99.90;;;;;;4986717;28;20241;-67
2022/01/23 15:09:04;;;;;;;1.43;0.80;;;8.50;99.90;;;;;;4987776;28;20313;-68
2022/01/23 15:11:32;;;;;;;2.33;0.80;;;8.30;99.90;;;;;;4986942;28;20253;-67
2022/01/23 15:14:00;;;;;;;3.80;0.90;;;8.20;99.90;;;;;;4986663;28;20233;-66
2022/01/23 15:16:29;;;;;;;3.37;1.00;;;8.00;99.90;;;;;;4982228;28;20237;-67
2022/01/23 15:18:57;;;;;;;5.03;0.90;;;7.90;99.90;;;;;;4986944;28;20236;-66
2022/01/23 15:21:25;;;;;;;2.03;1.00;;;7.70;99.90;;;;;;4981813;28;20714;-66
2022/01/23 15:23:55;;;;;;;5.23;1.03;;;7.80;99.90;;;;;;4988990;28;20233;-67
2022/01/23 15:26:26;;;;;;;2.63;1.13;;;8.30;99.90;;;;;;4989409;28;20328;-66
2022/01/23 15:28:56;;;;;;;1.07;0.90;;;8.20;99.90;;;;;;4989096;28;20241;-67
2022/01/23 15:31:24;;;;;;;1.57;0.93;;;7.90;99.90;;;;;;4987003;28;20257;-66
2022/01/23 15:33:53;;;;;;;1.10;0.83;;;7.90;99.90;;;;;;4989048;28;20226;-68
2022/01/23 15:36:22;;;;;;;2.83;1.03;;;7.70;99.90;;;;;;4983428;28;20239;-68
2022/01/23 15:38:50;;;;;;;3.40;1.17;;;7.70;99.90;;;;;;4984361;28;20296;-67
2022/01/23 15:41:18;;;;;;;2.53;0.70;;;7.60;99.90;;;;;;4981169;28;20238;-70
2022/01/23 15:43:48;;;;;;;1.90;1.00;;;7.50;99.90;;;;;;4986333;28;20694;-68
2022/01/23 15:46:17;;;;;;;1.93;0.97;;;7.50;99.90;;;;;;4985273;28;20230;-68
2022/01/23 15:48:45;;;;;;;3.77;0.80;;;7.50;99.90;;;;;;4984433;28;20238;-67
2022/01/23 15:51:13;;;;;;;1.67;0.60;;;7.50;99.90;;;;;;4986692;28;20714;-68
2022/01/23 15:53:41;;;;;;;3.07;1.00;;;7.50;99.90;;;;;;4984719;28;20742;-72
2022/01/23 15:56:09;;;;;;;1.00;0.80;;;7.30;99.90;;;;;;4990342;28;20237;-65
2022/01/23 15:58:38;;;;;;;1.50;0.80;;;7.40;99.90;;;;;;4984566;28;20695;-65